Newseas Pearl — H9JR — position and weather

sailwx.info

Track history (hours):
 
Tides and Currents Weather Stations Pressure Air Temp Water Temp Dewpoint Dewpoint Depression Visibility Wind Speed Wind Dir Waves Ship Positions

Newseas Pearl

Last reported at 2017-Nov-19 17:34 UTC. Time now 2017-Nov-22 13:13 UTC.
Position N 33°16' W 009°58'.

Length 190 m; draft 6.6 m.

Type: Ship (hazmat cat A). MMSI: 355104000.

Date/timePositionNaut miles runAvg speedWind from/ knotsBaromVisibWave heightAir tempDewpointWater temp
2017-Nov-19 17:34N 33°16' W 009°58'112.6
2017-Nov-19 17:28N 33°16' W 009°57'  
2017-Nov-11 07:30N 31°57' W 010°53'510.0
2017-Nov-11 07:00N 31°53' W 010°57'510.0
2017-Nov-11 06:30N 31°50' W 011°02'710.4
2017-Nov-11 05:49N 31°45' W 011°08'310.0
2017-Nov-11 05:30N 31°43' W 011°10'510.0
2017-Nov-11 05:00N 31°39' W 011°14'5 9.4
2017-Nov-11 04:31N 31°36' W 011°18'5 9.3
2017-Nov-11 04:00N 31°33' W 011°22'10 8.4
2017-Nov-11 02:52N 31°26' W 011°31'16 7.6
2017-Nov-11 00:44N 31°15' W 011°44'2 6.4
2017-Nov-11 00:22N 31°13' W 011°46'26 7.4
2017-Nov-10 20:50N 30°55' W 012°08'3 7.2
2017-Nov-10 20:29N 30°53' W 012°10'6 7.2
2017-Nov-10 19:43N 30°49' W 012°15'2 8.0
2017-Nov-10 19:26N 30°48' W 012°16'4 6.5
2017-Nov-10 18:52N 30°45' W 012°19'4 7.9
2017-Nov-10 18:24N 30°42' W 012°22'11 7.5
2017-Nov-10 16:56N 30°34' W 012°31'32 8.2
2017-Nov-10 13:02N 30°12' W 012°58'1 9.4
2017-Nov-10 12:57N 30°12' W 012°59'5 8.1
2017-Nov-10 12:20N 30°08' W 013°03'3 8.1
2017-Nov-10 12:00N 30°06' W 013°05'4 8.1
2017-Nov-10 11:30N 30°04' W 013°09'6 8.3
2017-Nov-10 10:50N 29°60' W 013°13'3 8.8
2017-Nov-10 10:30N 29°58' W 013°16'17 8.7
2017-Nov-10 08:30N 29°45' W 013°30'4 8.3
2017-Nov-10 08:00N 29°43' W 013°33'4 8.4
2017-Nov-10 07:30N 29°40' W 013°37'5 8.6
2017-Nov-10 06:56N 29°36' W 013°41'4 8.2
2017-Nov-10 06:30N 29°34' W 013°44'4 8.9
2017-Nov-10 06:00N 29°31' W 013°47'4 8.1
2017-Nov-10 05:28N 29°28' W 013°51'4 8.6
2017-Nov-10 04:59N 29°25' W 013°54'4 8.0
2017-Nov-10 04:29N 29°22' W 013°58'5 8.4
2017-Nov-10 03:55N 29°19' W 014°02'4 8.8
2017-Nov-10 03:29N 29°16' W 014°05'4 8.7
2017-Nov-10 02:58N 29°13' W 014°09'5 8.3
2017-Nov-10 02:24N 29°10' W 014°13'4 8.9
2017-Nov-10 02:00N 29°08' W 014°15'4 8.6
2017-Nov-10 01:30N 29°05' W 014°19'5 9.1
2017-Nov-10 01:00N 29°01' W 014°23'7 8.8
2017-Nov-10 00:11N 28°56' W 014°28'2 8.9
2017-Nov-10 00:00N 28°55' W 014°30'4 8.2
2017-Nov-09 23:30N 28°52' W 014°33'5 8.5
2017-Nov-09 22:57N 28°49' W 014°37'4 8.6
2017-Nov-09 22:30N 28°46' W 014°40'4 9.0
2017-Nov-09 22:00N 28°43' W 014°44'4 8.4
2017-Nov-09 21:30N 28°40' W 014°47'5 9.4
2017-Nov-09 21:00N 28°37' W 014°51'5 9.4
2017-Nov-09 20:30N 28°34' W 014°54'5 9.1
2017-Nov-09 20:00N 28°30' W 014°58'4 9.0
2017-Nov-09 19:30N 28°27' W 015°02'4 8.6
2017-Nov-09 19:00N 28°24' W 015°05'4 9.1
2017-Nov-09 18:30N 28°21' W 015°09'5 9.8
2017-Nov-09 18:00N 28°18' W 015°13'  
Track history (hours):
 
Tides and Currents Weather Stations Pressure Air Temp Water Temp Dewpoint Dewpoint Depression Visibility Wind Speed Wind Dir Waves Ship Positions

Newseas Pearl

Last reported at 2017-Nov-19 17:34 UTC. Time now 2017-Nov-22 13:13 UTC.
Position N 33°16' W 009°58'.

Length 190 m; draft 6.6 m.

Type: Ship (hazmat cat A). MMSI: 355104000.

Date/timePositionNaut miles runAvg speedWind from/ knotsBaromVisibWave heightAir tempDewpointWater temp
2017-Nov-19 17:34N 33°16' W 009°58'112.6
2017-Nov-19 17:28N 33°16' W 009°57'  
2017-Nov-11 07:30N 31°57' W 010°53'510.0
2017-Nov-11 07:00N 31°53' W 010°57'510.0
2017-Nov-11 06:30N 31°50' W 011°02'710.4
2017-Nov-11 05:49N 31°45' W 011°08'310.0
2017-Nov-11 05:30N 31°43' W 011°10'510.0
2017-Nov-11 05:00N 31°39' W 011°14'5 9.4
2017-Nov-11 04:31N 31°36' W 011°18'5 9.3
2017-Nov-11 04:00N 31°33' W 011°22'10 8.4
2017-Nov-11 02:52N 31°26' W 011°31'16 7.6
2017-Nov-11 00:44N 31°15' W 011°44'2 6.4
2017-Nov-11 00:22N 31°13' W 011°46'26 7.4
2017-Nov-10 20:50N 30°55' W 012°08'3 7.2
2017-Nov-10 20:29N 30°53' W 012°10'6 7.2
2017-Nov-10 19:43N 30°49' W 012°15'2 8.0
2017-Nov-10 19:26N 30°48' W 012°16'4 6.5
2017-Nov-10 18:52N 30°45' W 012°19'4 7.9
2017-Nov-10 18:24N 30°42' W 012°22'11 7.5
2017-Nov-10 16:56N 30°34' W 012°31'32 8.2
2017-Nov-10 13:02N 30°12' W 012°58'1 9.4
2017-Nov-10 12:57N 30°12' W 012°59'5 8.1
2017-Nov-10 12:20N 30°08' W 013°03'3 8.1
2017-Nov-10 12:00N 30°06' W 013°05'4 8.1
2017-Nov-10 11:30N 30°04' W 013°09'6 8.3
2017-Nov-10 10:50N 29°60' W 013°13'3 8.8
2017-Nov-10 10:30N 29°58' W 013°16'17 8.7
2017-Nov-10 08:30N 29°45' W 013°30'4 8.3
2017-Nov-10 08:00N 29°43' W 013°33'4 8.4
2017-Nov-10 07:30N 29°40' W 013°37'5 8.6
2017-Nov-10 06:56N 29°36' W 013°41'4 8.2
2017-Nov-10 06:30N 29°34' W 013°44'4 8.9
2017-Nov-10 06:00N 29°31' W 013°47'4 8.1
2017-Nov-10 05:28N 29°28' W 013°51'4 8.6
2017-Nov-10 04:59N 29°25' W 013°54'4 8.0
2017-Nov-10 04:29N 29°22' W 013°58'5 8.4
2017-Nov-10 03:55N 29°19' W 014°02'4 8.8
2017-Nov-10 03:29N 29°16' W 014°05'4 8.7
2017-Nov-10 02:58N 29°13' W 014°09'5 8.3
2017-Nov-10 02:24N 29°10' W 014°13'4 8.9
2017-Nov-10 02:00N 29°08' W 014°15'4 8.6
2017-Nov-10 01:30N 29°05' W 014°19'5 9.1
2017-Nov-10 01:00N 29°01' W 014°23'7 8.8
2017-Nov-10 00:11N 28°56' W 014°28'2 8.9
2017-Nov-10 00:00N 28°55' W 014°30'4 8.2
2017-Nov-09 23:30N 28°52' W 014°33'5 8.5
2017-Nov-09 22:57N 28°49' W 014°37'4 8.6
2017-Nov-09 22:30N 28°46' W 014°40'4 9.0
2017-Nov-09 22:00N 28°43' W 014°44'4 8.4
2017-Nov-09 21:30N 28°40' W 014°47'5 9.4
2017-Nov-09 21:00N 28°37' W 014°51'5 9.4
2017-Nov-09 20:30N 28°34' W 014°54'5 9.1
2017-Nov-09 20:00N 28°30' W 014°58'4 9.0
2017-Nov-09 19:30N 28°27' W 015°02'4 8.6
2017-Nov-09 19:00N 28°24' W 015°05'4 9.1
2017-Nov-09 18:30N 28°21' W 015°09'5 9.8
2017-Nov-09 18:00N 28°18' W 015°13'  

Dump ship's entire track history